Time;durP1;ratioP1;P1;durP2;ratioP2;P2;SDS_P1;SDS_P2;PMS_P1;PMS_P2;Temp;Humidity;BMP_temperature;BMP_pressure;BME280_temperature;BME280_humidity;BME280_pressure;Samples;Min_cycle;Max_cycle;Signal;HPM_P1;HPM_P2
2023/10/03 00:01:35;;;;;;;42.03;15.98;;;;;;;16.75;100.00;100960.59;5031621;28;20044;-87
2023/10/03 00:04:01;;;;;;;42.30;15.88;;;;;;;16.78;100.00;100962.72;5031753;28;20066;-88
2023/10/03 00:06:26;;;;;;;43.53;16.23;;;;;;;16.77;100.00;100961.13;5030004;28;20038;-88
2023/10/03 00:08:51;;;;;;;42.33;15.07;;;;;;;16.78;100.00;100951.91;5032595;28;20034;-87
2023/10/03 00:11:18;;;;;;;37.50;15.60;;;;;;;16.78;100.00;100945.66;5032593;28;20405;-88
2023/10/03 00:13:44;;;;;;;45.08;16.48;;;;;;;16.80;100.00;100938.84;5032150;28;20029;-88
2023/10/03 00:16:09;;;;;;;40.92;16.70;;;;;;;16.80;100.00;100936.16;5030985;28;20029;-88
2023/10/03 00:18:35;;;;;;;43.70;16.43;;;;;;;16.80;100.00;100935.34;5031885;28;20029;-88
2023/10/03 00:21:01;;;;;;;47.17;15.80;;;;;;;16.79;100.00;100928.34;5031912;28;20034;-87
2023/10/03 00:23:27;;;;;;;38.95;15.75;;;;;;;16.80;100.00;100928.03;5031446;28;20037;-88
2023/10/03 00:25:54;;;;;;;45.97;17.25;;;;;;;16.74;100.00;100921.13;5033132;28;20038;-88
2023/10/03 00:28:19;;;;;;;41.92;16.38;;;;;;;16.72;100.00;100920.63;5033683;28;20486;-88
2023/10/03 00:30:46;;;;;;;44.60;15.87;;;;;;;16.70;100.00;100924.72;5030624;28;20124;-88
2023/10/03 00:33:12;;;;;;;41.67;16.98;;;;;;;16.68;100.00;100922.31;5032050;28;20477;-88
2023/10/03 00:35:40;;;;;;;40.75;15.90;;;;;;;16.62;100.00;100916.19;5029929;28;20033;-87
2023/10/03 00:38:15;;;;;;;40.20;16.13;;;;;;;16.57;100.00;100916.25;5031250;28;20031;-88
2023/10/03 00:40:40;;;;;;;43.20;15.85;;;;;;;16.55;100.00;100909.53;5030804;28;20112;-89
2023/10/03 00:43:07;;;;;;;43.20;16.80;;;;;;;16.49;100.00;100904.22;5031617;28;20105;-88
2023/10/03 00:45:33;;;;;;;47.87;15.70;;;;;;;16.47;100.00;100901.00;5030981;28;20520;-88
2023/10/03 00:48:01;;;;;;;39.35;15.80;;;;;;;16.47;100.00;100892.09;5033947;28;20087;-88
2023/10/03 00:50:28;;;;;;;42.70;16.73;;;;;;;16.46;100.00;100891.28;5030761;28;20032;-88
2023/10/03 00:52:57;;;;;;;43.58;16.58;;;;;;;16.46;100.00;100874.25;5031751;28;20025;-88
2023/10/03 00:55:26;;;;;;;43.10;16.02;;;;;;;16.46;100.00;100869.66;5028803;28;20645;-88
2023/10/03 01:00:38;;;;;;;43.38;16.80;;;;;;;16.39;100.00;100852.19;5030738;28;20029;-88
2023/10/03 01:03:09;;;;;;;40.37;15.83;;;;;;;16.45;100.00;100851.81;5029513;28;20117;-87
2023/10/03 01:05:34;;;;;;;43.17;16.30;;;;;;;16.39;100.00;100842.19;5030552;28;20276;-88
2023/10/03 01:08:00;;;;;;;39.22;15.85;;;;;;;16.40;100.00;100830.28;5031143;28;20026;-88
2023/10/03 01:10:26;;;;;;;41.00;15.87;;;;;;;16.41;100.00;100823.78;5030831;28;20075;-88
2023/10/03 01:12:54;;;;;;;38.88;15.93;;;;;;;16.45;100.00;100823.97;5029546;28;20075;-87
2023/10/03 01:15:20;;;;;;;42.08;16.10;;;;;;;16.46;100.00;100820.97;5008946;28;20032;-88
2023/10/03 01:17:49;;;;;;;42.65;15.82;;;;;;;16.47;100.00;100811.75;5011261;28;20033;-88
2023/10/03 01:20:24;;;;;;;43.17;16.47;;;;;;;16.46;100.00;100799.31;5011133;28;20076;-88
2023/10/03 01:22:53;;;;;;;42.93;15.10;;;;;;;16.43;100.00;100805.31;5021963;28;20735;-88
2023/10/03 01:25:20;;;;;;;39.50;15.73;;;;;;;16.36;100.00;100807.63;5014392;28;20021;-87
2023/10/03 01:27:45;;;;;;;43.70;16.02;;;;;;;16.37;100.00;100809.25;5028503;28;20044;-88
2023/10/03 01:30:12;;;;;;;45.27;16.77;;;;;;;16.37;100.00;100800.31;5029761;28;20027;-88
2023/10/03 01:32:45;;;;;;;39.80;15.65;;;;;;;16.40;100.00;100797.84;5029520;28;20018;-88
2023/10/03 01:35:12;;;;;;;39.70;15.10;;;;;;;16.38;100.00;100796.50;5029551;28;20424;-88
2023/10/03 01:37:39;;;;;;;42.08;15.23;;;;;;;16.36;100.00;100791.41;5031075;28;20175;-88
2023/10/03 01:40:13;;;;;;;42.88;15.35;;;;;;;16.29;100.00;100791.00;5030396;28;20597;-87
2023/10/03 01:42:45;;;;;;;41.55;15.07;;;;;;;16.25;100.00;100795.41;5039662;28;20101;-88
2023/10/03 01:45:17;;;;;;;37.22;14.90;;;;;;;16.27;100.00;100779.66;5028153;28;20131;-88
2023/10/03 01:47:45;;;;;;;40.97;14.55;;;;;;;16.26;100.00;100784.28;5031961;28;20432;-88
2023/10/03 01:50:14;;;;;;;40.33;14.53;;;;;;;16.21;100.00;100773.56;5029829;28;20115;-88
2023/10/03 01:52:41;;;;;;;35.05;13.75;;;;;;;16.22;100.00;100787.88;5030210;28;20021;-88
2023/10/03 01:55:17;;;;;;;38.20;14.32;;;;;;;16.26;100.00;100783.47;5028623;28;20039;-88
2023/10/03 01:57:44;;;;;;;37.00;13.18;;;;;;;16.43;100.00;100775.59;5030207;28;20051;-88
2023/10/03 02:02:46;;;;;;;36.67;13.85;;;;;;;16.73;100.00;100778.00;5027721;28;20131;-88
2023/10/03 02:05:12;;;;;;;38.92;14.13;;;;;;;16.81;100.00;100766.50;5029587;28;20705;-88
2023/10/03 02:07:39;;;;;;;35.13;12.80;;;;;;;16.92;100.00;100767.88;5029961;28;20068;-87
2023/10/03 02:10:05;;;;;;;36.73;13.40;;;;;;;16.94;100.00;100770.31;5028363;28;20671;-87
2023/10/03 02:12:30;;;;;;;41.58;14.15;;;;;;;16.97;100.00;100758.09;5029896;28;20025;-88
2023/10/03 02:14:55;;;;;;;37.00;13.17;;;;;;;17.07;100.00;100764.09;5029376;28;20489;-88
2023/10/03 02:17:21;;;;;;;31.83;13.43;;;;;;;17.18;100.00;100766.56;5027537;28;20023;-87
2023/10/03 02:19:48;;;;;;;34.67;12.75;;;;;;;17.22;100.00;100754.03;5010511;28;20022;-88
2023/10/03 02:22:13;;;;;;;34.25;13.80;;;;;;;17.22;100.00;100754.03;5030188;28;20018;-88
2023/10/03 02:24:38;;;;;;;33.77;12.37;;;;;;;17.26;100.00;100755.81;5029568;28;20029;-88
2023/10/03 02:27:09;;;;;;;38.77;13.43;;;;;;;17.26;100.00;100738.78;5028994;28;20026;-88
2023/10/03 02:29:34;;;;;;;32.40;12.80;;;;;;;17.26;100.00;100739.56;5029251;28;20077;-87
2023/10/03 02:32:02;;;;;;;34.43;13.43;;;;;;;17.23;100.00;100736.69;5031276;28;20037;-88
2023/10/03 02:34:27;;;;;;;32.58;12.20;;;;;;;17.24;100.00;100747.22;5031420;28;20017;-88
2023/10/03 02:36:53;;;;;;;36.50;12.93;;;;;;;17.22;100.00;100752.16;5029692;28;20021;-88
2023/10/03 02:39:25;;;;;;;29.20;12.70;;;;;;;17.22;100.00;100744.03;5029818;28;20250;-88
2023/10/03 02:41:50;;;;;;;34.55;12.82;;;;;;;17.23;100.00;100755.63;5029168;28;20031;-87
2023/10/03 02:44:15;;;;;;;33.13;12.50;;;;;;;17.30;100.00;100752.50;5028277;28;20104;-87
2023/10/03 02:46:40;;;;;;;36.00;12.60;;;;;;;17.34;100.00;100751.63;5027019;28;20044;-89
2023/10/03 02:49:08;;;;;;;36.50;13.80;;;;;;;17.38;100.00;100751.78;5028922;28;20101;-90
2023/10/03 02:51:33;;;;;;;34.60;12.65;;;;;;;17.39;100.00;100756.09;5024879;28;20099;-90
2023/10/03 02:53:59;;;;;;;33.30;12.63;;;;;;;17.45;100.00;100760.28;5030168;28;20037;-89
2023/10/03 02:56:24;;;;;;;28.60;11.40;;;;;;;17.52;100.00;100754.47;5022561;28;20026;-89
2023/10/03 02:58:50;;;;;;;35.53;12.32;;;;;;;17.53;100.00;100767.69;5009877;28;20029;-89
2023/10/03 03:01:17;;;;;;;35.47;12.27;;;;;;;17.53;100.00;100773.13;5014688;28;20463;-89
2023/10/03 03:03:42;;;;;;;35.00;12.57;;;;;;;17.49;100.00;100769.41;5025404;28;20038;-92
2023/10/03 03:06:13;;;;;;;31.13;11.63;;;;;;;17.52;100.00;100771.50;5021013;28;20044;-89
2023/10/03 03:08:39;;;;;;;28.95;11.57;;;;;;;17.49;100.00;100763.19;5027858;28;20033;-91
2023/10/03 03:11:05;;;;;;;27.25;10.60;;;;;;;17.59;100.00;100768.38;5032228;28;20064;-90
2023/10/03 03:13:32;;;;;;;30.00;10.50;;;;;;;17.66;100.00;100778.78;5033234;28;20503;-90
2023/10/03 03:16:03;;;;;;;31.17;10.73;;;;;;;17.66;100.00;100774.19;5032888;28;20284;-89
2023/10/03 03:18:40;;;;;;;27.30;10.15;;;;;;;17.71;100.00;100767.81;5014025;28;20516;-90
2023/10/03 03:21:13;;;;;;;29.58;9.80;;;;;;;17.73;100.00;100778.34;5014031;28;20038;-89
2023/10/03 03:23:42;;;;;;;25.02;9.48;;;;;;;17.70;100.00;100764.34;5020528;28;20545;-89
2023/10/03 03:26:36;;;;;;;25.23;10.60;;;;;;;17.71;100.00;100774.03;5025927;28;20025;-89
2023/10/03 03:29:02;;;;;;;30.48;11.18;;;;;;;17.71;100.00;100776.75;5028113;28;20034;-88
2023/10/03 03:31:31;;;;;;;28.77;10.80;;;;;;;17.71;100.00;100760.47;5028607;28;20696;-89
2023/10/03 03:33:57;;;;;;;32.40;10.67;;;;;;;17.73;100.00;100759.38;5027330;28;20288;-91
2023/10/03 03:36:29;;;;;;;30.52;11.00;;;;;;;17.70;100.00;100764.34;5027102;28;20021;-91
2023/10/03 03:38:56;;;;;;;28.42;10.88;;;;;;;17.69;100.00;100764.63;5031181;28;20025;-89
2023/10/03 03:41:21;;;;;;;27.95;10.65;;;;;;;17.69;100.00;100756.50;5026571;28;20115;-89
2023/10/03 03:43:48;;;;;;;26.00;10.77;;;;;;;17.63;100.00;100763.13;5029922;28;20060;-89
2023/10/03 03:46:14;;;;;;;27.80;10.40;;;;;;;17.62;100.00;100756.94;5032610;28;20032;-89
2023/10/03 03:48:40;;;;;;;27.65;9.57;;;;;;;17.66;100.00;100755.22;5032494;28;20029;-89
2023/10/03 03:51:07;;;;;;;22.10;9.75;;;;;;;17.67;100.00;100754.09;5032725;28;20020;-89
2023/10/03 03:53:33;;;;;;;21.67;8.90;;;;;;;17.77;100.00;100772.03;5031558;28;20395;-89
2023/10/03 03:56:00;;;;;;;27.73;9.63;;;;;;;17.78;100.00;100762.78;5030983;28;20299;-89
2023/10/03 03:58:26;;;;;;;24.25;8.60;;;;;;;17.82;100.00;100768.38;5032262;28;20048;-88
2023/10/03 04:00:52;;;;;;;22.83;9.40;;;;;;;17.86;100.00;100772.09;5032105;28;20168;-88
2023/10/03 04:03:18;;;;;;;21.08;8.98;;;;;;;17.92;100.00;100773.53;5032760;28;20524;-89
2023/10/03 04:05:46;;;;;;;20.67;8.87;;;;;;;17.90;100.00;100775.75;5032616;28;20627;-88
2023/10/03 04:08:11;;;;;;;17.13;8.03;;;;;;;17.91;100.00;100780.06;5032631;28;20303;-90
2023/10/03 04:10:37;;;;;;;17.90;8.15;;;;;;;17.96;100.00;100782.66;5031833;28;20029;-90
2023/10/03 04:13:09;;;;;;;17.43;7.27;;;;;;;17.98;100.00;100774.28;5031551;28;20587;-89
2023/10/03 04:15:39;;;;;;;15.40;7.07;;;;;;;17.98;100.00;100785.91;5032288;28;20105;-89
2023/10/03 04:18:12;;;;;;;16.88;7.30;;;;;;;17.97;100.00;100799.75;5031630;28;20030;-90
2023/10/03 04:20:40;;;;;;;14.07;7.05;;;;;;;17.97;100.00;100786.97;5028337;28;20029;-91
2023/10/03 04:23:07;;;;;;;17.10;7.53;;;;;;;18.04;100.00;100796.63;5031505;28;20061;-89
2023/10/03 04:25:33;;;;;;;17.77;7.43;;;;;;;18.04;100.00;100793.91;5032067;28;20053;-87
2023/10/03 04:28:04;;;;;;;15.57;6.50;;;;;;;18.06;100.00;100797.91;5021392;28;20053;-88
2023/10/03 04:30:30;;;;;;;16.05;6.97;;;;;;;17.99;100.00;100803.78;5027426;28;20037;-87
2023/10/03 04:32:57;;;;;;;12.95;6.68;;;;;;;17.95;100.00;100810.88;5031065;28;20040;-87
2023/10/03 04:35:23;;;;;;;16.38;6.32;;;;;;;17.97;100.00;100818.72;5031118;28;20086;-88
2023/10/03 04:37:51;;;;;;;13.05;6.05;;;;;;;18.00;100.00;100824.34;5030838;28;20033;-87
2023/10/03 04:40:27;;;;;;;13.80;6.10;;;;;;;18.01;100.00;100806.16;5033304;28;20072;-88
2023/10/03 04:42:53;;;;;;;14.20;6.07;;;;;;;18.06;100.00;100822.31;5032367;28;20028;-87
2023/10/03 04:45:19;;;;;;;12.23;6.20;;;;;;;18.11;100.00;100830.31;5030222;28;20104;-89
2023/10/03 04:47:48;;;;;;;12.68;5.28;;;;;;;18.16;100.00;100818.53;5031476;28;20407;-86
2023/10/03 04:50:18;;;;;;;12.13;5.63;;;;;;;18.11;100.00;100826.78;5047820;28;20059;-91
2023/10/03 04:52:48;;;;;;;13.83;5.70;;;;;;;18.10;100.00;100836.84;5046282;28;20081;-91
2023/10/03 04:55:17;;;;;;;11.50;5.27;;;;;;;18.12;100.00;100833.81;5041831;28;20905;-90
2023/10/03 04:57:52;;;;;;;14.20;5.65;;;;;;;18.13;100.00;100848.97;5034219;28;20249;-89
2023/10/03 05:00:19;;;;;;;16.50;5.30;;;;;;;18.16;100.00;100851.09;5037864;28;20030;-89
2023/10/03 05:02:49;;;;;;;13.15;5.07;;;;;;;18.14;100.00;100847.88;5034650;28;20132;-92
2023/10/03 05:05:23;;;;;;;13.32;5.82;;;;;;;18.08;100.00;100841.78;5024027;28;20029;-91
2023/10/03 05:07:58;;;;;;;13.35;5.30;;;;;;;18.08;100.00;100838.25;5021759;28;20029;-91
2023/10/03 05:10:24;;;;;;;15.67;5.37;;;;;;;18.07;100.00;100853.72;5030604;28;20056;-90
2023/10/03 05:12:53;;;;;;;9.23;4.83;;;;;;;18.07;100.00;100870.00;5031266;28;20827;-91
2023/10/03 05:15:20;;;;;;;10.73;5.40;;;;;;;18.04;100.00;100876.03;5029885;28;20040;-90
2023/10/03 05:17:46;;;;;;;11.35;5.25;;;;;;;18.00;100.00;100883.16;5017101;28;20531;-93
2023/10/03 05:20:13;;;;;;;12.55;5.72;;;;;;;18.08;100.00;100903.31;5033839;28;20033;-91
2023/10/03 05:22:40;;;;;;;11.20;5.35;;;;;;;18.06;100.00;100911.00;5030665;28;20022;-90
2023/10/03 05:25:11;;;;;;;11.87;5.13;;;;;;;18.05;100.00;100909.38;5026745;28;20096;-90
2023/10/03 05:27:37;;;;;;;13.60;5.50;;;;;;;18.01;100.00;100888.31;5030439;28;20854;-90
2023/10/03 05:30:05;;;;;;;10.50;5.18;;;;;;;17.99;100.00;100884.28;5030955;28;20128;-92
2023/10/03 05:32:30;;;;;;;10.75;5.60;;;;;;;17.96;100.00;100860.50;5028701;28;20017;-90
2023/10/03 05:34:58;;;;;;;15.00;5.35;;;;;;;17.86;100.00;100851.47;5026803;28;20695;-90
2023/10/03 05:37:24;;;;;;;16.70;5.60;;;;;;;17.82;100.00;100871.38;5032124;28;20144;-90
2023/10/03 05:39:49;;;;;;;17.27;5.77;;;;;;;17.78;100.00;100865.78;5031136;28;21007;-92
2023/10/03 05:42:17;;;;;;;9.10;4.97;;;;;;;17.80;100.00;100870.88;5031320;28;20469;-91
2023/10/03 05:44:44;;;;;;;14.18;5.50;;;;;;;17.80;100.00;100881.72;5029744;28;20132;-91
2023/10/03 05:47:09;;;;;;;14.02;5.80;;;;;;;17.81;100.00;100886.03;5030652;28;20087;-92
2023/10/03 05:49:34;;;;;;;14.00;5.83;;;;;;;17.82;100.00;100879.50;5028560;28;20488;-91
2023/10/03 05:52:00;;;;;;;12.70;5.93;;;;;;;17.82;100.00;100868.66;5030356;28;20534;-91
2023/10/03 05:54:26;;;;;;;13.23;5.53;;;;;;;17.84;100.00;100880.00;5029912;28;20025;-90
2023/10/03 05:56:52;;;;;;;13.87;5.43;;;;;;;17.82;100.00;100890.34;5029574;28;20038;-91
2023/10/03 05:59:20;;;;;;;11.07;4.70;;;;;;;17.83;100.00;100875.69;5031162;28;20033;-91
2023/10/03 06:01:46;;;;;;;10.52;5.25;;;;;;;17.81;100.00;100875.19;5027906;28;20449;-91
2023/10/03 06:04:11;;;;;;;14.68;5.00;;;;;;;17.80;100.00;100882.50;5030100;28;20104;-92
2023/10/03 06:06:36;;;;;;;7.83;4.97;;;;;;;17.75;100.00;100879.91;5028679;28;20025;-91
2023/10/03 06:09:02;;;;;;;17.33;4.87;;;;;;;17.80;100.00;100884.41;5030451;28;20607;-90
2023/10/03 06:11:29;;;;;;;10.73;5.28;;;;;;;17.75;100.00;100893.47;5030452;28;20021;-91
2023/10/03 06:13:57;;;;;;;15.03;4.97;;;;;;;17.80;100.00;100882.50;5030606;28;20032;-90
2023/10/03 06:16:22;;;;;;;12.23;5.18;;;;;;;17.81;100.00;100883.31;5028944;28;20122;-90
2023/10/03 06:18:48;;;;;;;8.85;4.72;;;;;;;17.79;100.00;100886.34;5027054;28;20106;-90
2023/10/03 06:21:13;;;;;;;12.70;4.80;;;;;;;17.83;100.00;100891.94;5030077;28;20435;-89
2023/10/03 06:23:38;;;;;;;11.30;5.20;;;;;;;17.82;100.00;100904.69;5023686;28;20727;-87
2023/10/03 06:26:04;;;;;;;13.80;5.07;;;;;;;17.85;100.00;100911.41;5027457;28;20041;-87
2023/10/03 06:28:29;;;;;;;14.48;6.03;;;;;;;17.83;100.00;100908.22;5023639;28;20105;-85
2023/10/03 06:30:55;;;;;;;10.40;5.27;;;;;;;17.81;100.00;100919.34;5023853;28;20052;-87
2023/10/03 06:33:21;;;;;;;12.32;4.90;;;;;;;17.80;100.00;100914.22;5029556;28;20396;-86
2023/10/03 06:35:51;;;;;;;12.95;5.57;;;;;;;17.79;100.00;100915.34;5023072;28;20033;-87
2023/10/03 06:38:20;;;;;;;11.00;5.23;;;;;;;17.80;100.00;100925.06;5027084;28;20033;-87
2023/10/03 06:40:46;;;;;;;10.27;5.40;;;;;;;17.79;100.00;100923.47;5028255;28;20119;-85
2023/10/03 06:43:11;;;;;;;19.45;5.63;;;;;;;17.77;100.00;100925.66;5014998;28;20025;-86
2023/10/03 06:45:37;;;;;;;14.40;5.47;;;;;;;17.80;100.00;100930.50;5015214;28;20563;-86
2023/10/03 06:48:04;;;;;;;13.85;5.43;;;;;;;17.77;100.00;100931.09;5016121;28;20018;-87
2023/10/03 06:50:32;;;;;;;14.52;5.90;;;;;;;17.77;100.00;100939.22;5038139;28;20479;-86
2023/10/03 06:52:59;;;;;;;11.57;5.38;;;;;;;17.80;100.00;100942.13;5049711;28;20070;-86
2023/10/03 06:55:24;;;;;;;11.48;5.55;;;;;;;17.80;100.00;100952.16;5022619;28;20547;-86
2023/10/03 06:57:50;;;;;;;8.67;5.17;;;;;;;17.79;100.00;100966.81;5023524;28;20026;-86
2023/10/03 07:00:16;;;;;;;14.23;5.55;;;;;;;17.78;100.00;100965.22;5025072;28;20041;-86
2023/10/03 07:02:42;;;;;;;11.73;5.37;;;;;;;17.79;100.00;100967.66;5021753;28;20030;-85
2023/10/03 07:05:08;;;;;;;11.40;5.40;;;;;;;17.79;100.00;100970.34;5021897;28;20025;-85
2023/10/03 07:07:36;;;;;;;12.13;5.73;;;;;;;17.80;100.00;100971.16;5026098;28;20021;-84
2023/10/03 07:10:01;;;;;;;10.75;5.15;;;;;;;17.75;100.00;100972.06;5025372;28;20083;-87
2023/10/03 07:12:27;;;;;;;9.90;5.13;;;;;;;17.79;100.00;100969.53;5026677;28;20017;-88
2023/10/03 07:14:52;;;;;;;16.27;5.53;;;;;;;17.78;100.00;100959.81;5020410;28;20037;-88
2023/10/03 07:17:17;;;;;;;13.83;5.80;;;;;;;17.67;100.00;100961.91;5033453;28;20464;-88
2023/10/03 07:19:48;;;;;;;12.87;5.57;;;;;;;17.59;100.00;100976.19;5031116;28;20029;-88
2023/10/03 07:22:13;;;;;;;14.73;6.40;;;;;;;17.39;100.00;100970.06;5033410;28;20037;-88
2023/10/03 07:24:39;;;;;;;8.30;5.95;;;;;;;17.20;100.00;100967.44;5049356;28;20033;-88
2023/10/03 07:27:07;;;;;;;10.50;5.60;;;;;;;17.06;100.00;100973.63;5026322;28;20404;-88
2023/10/03 07:29:33;;;;;;;15.50;6.68;;;;;;;16.98;100.00;100981.63;5012499;28;20025;-87
2023/10/03 07:31:58;;;;;;;14.38;6.38;;;;;;;16.86;100.00;100976.66;5014153;28;20032;-87
2023/10/03 07:34:23;;;;;;;18.00;7.40;;;;;;;16.74;100.00;100975.25;5014450;28;20034;-88
2023/10/03 07:36:49;;;;;;;20.67;8.18;;;;;;;16.77;100.00;100968.41;5031507;28;20500;-88
2023/10/03 07:39:17;;;;;;;18.43;7.30;;;;;;;16.80;100.00;100984.84;5032226;28;20026;-89
2023/10/03 07:41:42;;;;;;;17.35;8.05;;;;;;;16.87;100.00;100984.50;5028771;28;20044;-88
2023/10/03 07:44:08;;;;;;;15.23;7.77;;;;;;;16.93;100.00;100979.81;5032972;28;20508;-88
2023/10/03 07:46:34;;;;;;;19.40;8.38;;;;;;;16.98;100.00;100989.75;5029917;28;20032;-89
2023/10/03 07:49:01;;;;;;;17.33;8.20;;;;;;;17.01;100.00;101000.78;5032548;28;20029;-89
2023/10/03 07:51:27;;;;;;;18.95;7.88;;;;;;;16.95;100.00;101013.59;5030890;28;20025;-88
2023/10/03 07:53:53;;;;;;;14.87;8.03;;;;;;;16.89;100.00;101022.06;5032111;28;20031;-87
2023/10/03 07:56:43;;;;;;;13.15;7.47;;;;;;;16.78;100.00;101027.66;5031780;28;20026;-89
2023/10/03 07:59:09;;;;;;;17.08;7.40;;;;;;;16.71;100.00;101023.69;5031034;28;20041;-87
2023/10/03 08:01:38;;;;;;;13.17;7.57;;;;;;;16.73;100.00;101014.22;5031796;28;20059;-88
2023/10/03 08:04:08;;;;;;;15.57;7.18;;;;;;;16.72;100.00;101007.19;5031932;28;20077;-88
2023/10/03 08:06:34;;;;;;;14.82;7.60;;;;;;;16.73;100.00;101022.31;5030005;28;20464;-88
2023/10/03 08:09:00;;;;;;;14.50;8.00;;;;;;;16.75;100.00;101020.13;5031322;28;20037;-89
2023/10/03 08:11:29;;;;;;;18.77;7.40;;;;;;;16.70;100.00;101028.31;5031026;28;20111;-90
2023/10/03 08:14:13;;;;;;;16.20;6.90;;;;;;;16.68;100.00;101044.03;5032076;28;20299;-89
2023/10/03 08:16:43;;;;;;;14.02;7.88;;;;;;;16.62;100.00;101056.84;5031384;28;20029;-88
2023/10/03 08:19:21;;;;;;;17.77;7.75;;;;;;;16.59;100.00;101035.00;5029401;28;20357;-89
2023/10/03 08:21:49;;;;;;;16.70;7.63;;;;;;;16.49;100.00;101073.81;5032747;28;20038;-88
2023/10/03 08:24:24;;;;;;;11.48;7.15;;;;;;;16.38;100.00;101080.44;5031250;28;20022;-87
2023/10/03 08:26:51;;;;;;;12.80;6.63;;;;;;;16.44;100.00;101090.91;5032220;28;20030;-88
2023/10/03 08:29:23;;;;;;;16.13;7.50;;;;;;;16.58;100.00;101103.72;5031904;28;20030;-88
2023/10/03 08:31:57;;;;;;;11.63;7.03;;;;;;;16.63;100.00;101090.91;5032385;28;20052;-89
2023/10/03 08:34:26;;;;;;;13.27;6.15;;;;;;;16.74;100.00;101097.00;5034920;28;20476;-89
2023/10/03 08:36:54;;;;;;;14.73;6.60;;;;;;;16.78;100.00;101099.91;5031473;28;20365;-87
2023/10/03 08:39:23;;;;;;;11.98;5.50;;;;;;;16.87;100.00;101105.47;5030515;28;20025;-88
2023/10/03 08:42:13;;;;;;;10.50;4.93;;;;;;;16.92;100.00;101097.28;5024455;28;20037;-88
2023/10/03 08:44:49;;;;;;;8.25;4.10;;;;;;;17.01;100.00;101110.97;5025976;28;20679;-88
2023/10/03 08:47:17;;;;;;;6.35;3.70;;;;;;;17.00;100.00;101103.94;5030750;28;20025;-88
2023/10/03 08:49:48;;;;;;;9.97;3.63;;;;;;;17.12;100.00;101120.53;5031022;28;20108;-86
2023/10/03 08:52:13;;;;;;;8.17;3.80;;;;;;;17.22;100.00;101131.22;5033861;28;20327;-89
2023/10/03 08:54:41;;;;;;;7.82;3.17;;;;;;;17.29;100.00;101138.97;5031203;28;20053;-88
2023/10/03 08:57:10;;;;;;;7.97;2.53;;;;;;;17.23;100.00;101132.81;5030293;28;20060;-87
2023/10/03 08:59:40;;;;;;;7.40;2.63;;;;;;;17.20;100.00;101146.13;5030180;28;20295;-88
2023/10/03 09:02:11;;;;;;;6.95;2.78;;;;;;;17.16;100.00;101151.34;5030032;28;20029;-89
2023/10/03 09:04:39;;;;;;;9.50;2.10;;;;;;;17.16;100.00;101150.56;5029970;28;20053;-88
2023/10/03 09:07:11;;;;;;;4.75;1.70;;;;;;;16.96;100.00;101163.28;5041363;28;20068;-88
2023/10/03 09:09:41;;;;;;;5.55;1.48;;;;;;;16.69;100.00;101199.88;5029588;28;20385;-87
2023/10/03 09:12:08;;;;;;;3.15;1.00;;;;;;;16.47;100.00;101192.31;5028281;28;20037;-89
2023/10/03 09:14:36;;;;;;;2.70;0.70;;;;;;;16.33;100.00;101194.88;5021699;28;20025;-88
2023/10/03 09:17:05;;;;;;;3.10;0.80;;;;;;;16.35;100.00;101203.53;5030346;28;20326;-87
2023/10/03 09:19:42;;;;;;;1.23;0.90;;;;;;;16.69;100.00;101213.41;5014185;28;20128;-87
2023/10/03 09:22:08;;;;;;;3.42;0.98;;;;;;;17.09;100.00;101216.69;5028563;28;20033;-87
2023/10/03 09:24:43;;;;;;;1.40;0.80;;;;;;;17.30;100.00;101227.22;5029777;28;20026;-88
2023/10/03 09:27:09;;;;;;;4.82;0.93;;;;;;;17.54;100.00;101231.72;5027894;28;20084;-87
2023/10/03 09:29:35;;;;;;;2.95;1.00;;;;;;;17.76;100.00;101241.97;5029306;28;20040;-87
2023/10/03 09:32:12;;;;;;;2.23;0.80;;;;;;;17.93;100.00;101246.03;5029677;28;20034;-88
2023/10/03 09:34:40;;;;;;;3.13;0.90;;;;;;;18.03;100.00;101250.50;5019630;28;20083;-87
2023/10/03 09:37:05;;;;;;;2.93;1.10;;;;;;;18.08;100.00;101255.81;5028941;28;20025;-87
2023/10/03 09:39:39;;;;;;;2.13;1.10;;;;;;;18.06;100.00;101253.41;5030681;28;20631;-88
2023/10/03 09:42:15;;;;;;;2.60;1.05;;;;;;;18.00;100.00;101255.41;5029523;28;20076;-88
2023/10/03 09:44:43;;;;;;;2.85;1.23;;;;;;;17.97;100.00;101253.25;5014935;28;20099;-88
2023/10/03 09:47:08;;;;;;;6.50;1.30;;;;;;;18.09;100.00;101252.00;5029372;28;20025;-88
2023/10/03 09:49:38;;;;;;;2.77;1.20;;;;;;;18.10;100.00;101250.88;5030064;28;20033;-88
2023/10/03 09:52:22;;;;;;;3.15;1.25;;;;;;;18.05;100.00;101251.00;5029793;28;20026;-88
2023/10/03 09:54:53;;;;;;;6.65;1.52;;;;;;;17.94;100.00;101266.59;5029941;28;20550;-88
2023/10/03 09:57:21;;;;;;;4.35;1.25;;;;;;;17.80;100.00;101277.41;5030336;28;20022;-87
2023/10/03 09:59:48;;;;;;;3.93;1.20;;;;;;;17.62;100.00;101277.13;5029642;28;20033;-88
2023/10/03 10:02:30;;;;;;;4.65;1.73;;;;;;;17.44;100.00;101283.38;5027779;28;20025;-87
2023/10/03 10:04:59;;;;;;;5.82;1.30;;;;;;;17.34;100.00;101281.59;5028443;28;20036;-88
2023/10/03 10:07:34;;;;;;;3.95;1.20;;;;;;;17.54;100.00;101280.50;5027924;28;20540;-88
2023/10/03 10:10:09;;;;;;;3.90;1.65;;;;;;;17.91;100.00;101305.94;5029834;28;20637;-87
2023/10/03 10:12:42;;;;;;;5.97;1.52;;;;;;;18.34;100.00;101312.31;5029161;28;20476;-86
2023/10/03 10:17:45;;;;;;;4.60;1.20;;;;;;;18.77;100.00;101312.84;5028137;28;20404;-88
2023/10/03 10:20:17;;;;;;;3.63;1.00;;;;;;;18.80;100.00;101330.47;5030061;28;20060;-88
2023/10/03 10:25:41;;;;;;;3.45;1.10;;;;;;;18.35;100.00;101341.06;5012019;28;20044;-88
2023/10/03 10:28:08;;;;;;;3.90;1.10;;;;;;;18.05;100.00;101346.69;5030528;28;20108;-87
2023/10/03 10:30:34;;;;;;;3.57;1.30;;;;;;;17.84;100.00;101351.59;5028112;28;20045;-88
2023/10/03 10:33:15;;;;;;;1.48;0.98;;;;;;;17.80;100.00;101359.50;5030320;28;20405;-88
2023/10/03 10:36:03;;;;;;;1.85;0.90;;;;;;;17.78;100.00;101358.19;5028362;28;20319;-87
2023/10/03 10:38:31;;;;;;;2.03;1.05;;;;;;;17.77;100.00;101360.13;5030135;28;20107;-88
2023/10/03 10:41:11;;;;;;;4.15;0.95;;;;;;;17.88;100.00;101359.94;5029954;28;20035;-88
2023/10/03 10:44:09;;;;;;;4.55;1.42;;;;;;;18.14;100.00;101363.91;5030055;28;20055;-88
2023/10/03 10:46:39;;;;;;;4.23;1.10;;;;;;;18.42;100.00;101363.19;5027812;28;20484;-88
2023/10/03 10:49:48;;;;;;;2.87;0.93;;;;;;;18.70;100.00;101384.94;5031839;28;20643;-88
2023/10/03 10:52:13;;;;;;;4.22;1.10;;;;;;;18.59;100.00;101381.59;5032587;28;20519;-89
2023/10/03 10:54:41;;;;;;;1.57;0.73;;;;;;;18.16;100.00;101396.97;5032753;28;20021;-88
2023/10/03 10:57:11;;;;;;;1.65;0.60;;;;;;;17.77;100.00;101402.66;5034464;28;20031;-88
2023/10/03 10:59:40;;;;;;;1.42;0.90;;;;;;;17.17;100.00;101387.69;5038025;28;20032;-87
2023/10/03 11:02:17;;;;;;;1.63;0.82;;;;;;;16.47;100.00;101401.34;5038561;28;20435;-87
2023/10/03 11:04:43;;;;;;;2.05;0.80;;;;;;;16.09;100.00;101401.09;5039420;28;20022;-88
2023/10/03 11:07:09;;;;;;;2.22;1.00;;;;;;;15.94;100.00;101393.94;5031186;28;20100;-87
2023/10/03 11:09:36;;;;;;;2.50;0.90;;;;;;;15.92;100.00;101406.91;5031255;28;20571;-87
2023/10/03 11:12:06;;;;;;;3.20;1.00;;;;;;;15.80;100.00;101409.09;5033231;28;20034;-87
2023/10/03 11:14:33;;;;;;;2.20;1.10;;;;;;;15.67;100.00;101424.03;5032674;28;20025;-87
2023/10/03 11:16:59;;;;;;;1.63;0.80;;;;;;;15.47;100.00;101417.66;5039183;28;20013;-87
2023/10/03 11:19:31;;;;;;;2.80;1.00;;;;;;;15.42;100.00;101417.66;5033311;28;20032;-87
2023/10/03 11:21:57;;;;;;;2.72;0.90;;;;;;;15.26;100.00;101420.41;5032941;28;20065;-87
2023/10/03 11:24:24;;;;;;;2.60;0.95;;;;;;;15.11;100.00;101417.75;5031560;28;20103;-88
2023/10/03 11:26:55;;;;;;;2.72;1.35;;;;;;;15.26;100.00;101406.09;5032412;28;20033;-88